createdAt,value
2022-08-31T00:00:33.298Z,29.20
2022-08-31T00:03:19.070Z,27.30
2022-08-31T00:05:47.272Z,28.70
2022-08-31T00:08:15.738Z,28.10
2022-08-31T00:10:46.513Z,30.10
2022-08-31T00:13:15.679Z,29.30
2022-08-31T00:15:47.321Z,30.20
2022-08-31T00:18:16.092Z,32.00
2022-08-31T00:20:44.952Z,33.50
2022-08-31T00:23:15.673Z,31.00
2022-08-31T00:25:46.391Z,29.80
2022-08-31T00:28:16.607Z,29.00
2022-08-31T00:30:45.063Z,29.10
2022-08-31T00:33:14.503Z,29.40
2022-08-31T00:35:43.883Z,31.30
2022-08-31T00:38:14.318Z,34.10
2022-08-31T00:40:46.300Z,33.70
2022-08-31T00:43:31.653Z,36.20
2022-08-31T00:45:59.737Z,37.30
2022-08-31T00:48:29.237Z,39.90
2022-08-31T00:50:57.846Z,42.40
2022-08-31T00:53:26.455Z,42.40
2022-08-31T00:55:54.616Z,44.70
2022-08-31T00:58:23.573Z,46.60
2022-08-31T01:00:52.244Z,49.60
2022-08-31T01:03:21.595Z,51.80
2022-08-31T01:05:51.811Z,53.80
2022-08-31T01:08:27.031Z,55.10
2022-08-31T01:10:59.738Z,56.80
2022-08-31T01:13:27.992Z,58.30
2022-08-31T01:16:04.602Z,58.70
2022-08-31T01:18:34.843Z,59.00
2022-08-31T01:21:13.877Z,60.20
2022-08-31T01:23:45.299Z,62.20
2022-08-31T01:26:16.783Z,62.00
2022-08-31T01:28:45.326Z,63.10
2022-08-31T01:31:21.769Z,63.60
2022-08-31T01:33:50.116Z,63.00
2022-08-31T01:36:19.159Z,64.50
2022-08-31T01:38:53.218Z,64.70
2022-08-31T01:41:21.696Z,65.80
2022-08-31T01:43:49.817Z,66.50
2022-08-31T01:46:18.028Z,67.00
2022-08-31T01:48:47.644Z,69.80
2022-08-31T01:51:18.204Z,70.50
2022-08-31T01:53:51.229Z,71.50
2022-08-31T01:56:21.828Z,71.90
2022-08-31T01:58:49.998Z,73.90
2022-08-31T02:01:33.812Z,73.30
2022-08-31T02:04:04.897Z,76.40
2022-08-31T02:06:34.169Z,77.70
2022-08-31T02:09:06.128Z,76.40
2022-08-31T02:11:34.278Z,77.70
2022-08-31T02:14:02.301Z,77.20
2022-08-31T02:16:30.443Z,79.00
2022-08-31T02:18:58.693Z,80.80
2022-08-31T02:21:26.946Z,80.30
2022-08-31T02:23:55.209Z,80.20
2022-08-31T02:26:26.037Z,80.60
2022-08-31T02:28:54.090Z,80.00
2022-08-31T02:31:22.841Z,80.60
2022-08-31T02:33:50.902Z,82.10
2022-08-31T02:36:18.930Z,82.30
2022-08-31T02:38:47.897Z,84.00
2022-08-31T02:41:17.596Z,84.50
2022-08-31T02:43:47.113Z,84.10
2022-08-31T02:46:15.211Z,84.60
2022-08-31T02:48:43.279Z,84.00
2022-08-31T02:51:11.678Z,84.40
2022-08-31T02:53:40.213Z,85.10
2022-08-31T02:56:09.095Z,85.00
2022-08-31T02:58:37.521Z,84.70
2022-08-31T03:01:07.161Z,84.90
2022-08-31T03:03:35.809Z,85.00
2022-08-31T03:06:04.606Z,84.70
2022-08-31T03:08:32.615Z,84.90
2022-08-31T03:11:01.359Z,85.80
2022-08-31T03:13:29.896Z,85.70
2022-08-31T03:15:58.159Z,88.00
2022-08-31T03:18:27.582Z,85.70
2022-08-31T03:20:55.573Z,85.10
2022-08-31T03:23:23.612Z,85.50
2022-08-31T03:25:51.793Z,84.30
2022-08-31T03:28:19.837Z,85.80
2022-08-31T03:30:48.009Z,86.70
2022-08-31T03:33:16.144Z,86.20
2022-08-31T03:35:46.088Z,86.30
2022-08-31T03:38:15.964Z,87.60
2022-08-31T05:46:31.479Z,1.00
2022-08-31T05:48:59.572Z,1.00
2022-08-31T05:51:27.613Z,1.00
2022-08-31T05:57:55.207Z,1.00
2022-08-31T06:00:24.782Z,1.00
2022-08-31T06:02:55.180Z,1.00
2022-08-31T06:05:23.510Z,99.90
2022-08-31T06:07:51.632Z,99.90
2022-08-31T06:10:20.873Z,99.90
2022-08-31T06:12:48.909Z,99.90
2022-08-31T06:15:17.669Z,99.90
2022-08-31T06:17:45.880Z,99.90
2022-08-31T06:20:17.999Z,99.90
2022-08-31T06:22:46.595Z,99.90
2022-08-31T06:25:19.233Z,99.90
2022-08-31T06:27:49.129Z,99.90
2022-08-31T06:30:19.219Z,99.90
2022-08-31T06:32:47.866Z,23.30
2022-08-31T06:35:17.457Z,21.80
2022-08-31T06:37:45.535Z,1.00
2022-08-31T06:40:13.597Z,1.00
2022-08-31T06:42:41.636Z,1.00
2022-08-31T06:45:10.666Z,1.00
2022-08-31T06:47:38.717Z,99.90
2022-08-31T06:50:07.571Z,99.90
2022-08-31T06:52:39.106Z,1.00
2022-08-31T06:55:08.233Z,1.00
2022-08-31T06:57:36.384Z,1.00
2022-08-31T07:00:05.863Z,1.00
2022-08-31T07:02:34.375Z,1.00
2022-08-31T07:05:02.516Z,1.00
2022-08-31T07:07:32.526Z,1.00
2022-08-31T07:10:01.938Z,1.00
2022-08-31T07:12:30.775Z,1.00
2022-08-31T07:14:58.779Z,1.00
2022-08-31T07:17:26.826Z,4.30
2022-08-31T07:19:54.989Z,36.30
2022-08-31T07:22:23.037Z,69.20
2022-08-31T07:24:51.072Z,94.00
2022-08-31T07:27:20.509Z,99.20
2022-08-31T07:29:48.645Z,88.30
2022-08-31T07:32:17.443Z,83.10
2022-08-31T07:34:45.608Z,85.20
2022-08-31T07:37:31.093Z,72.40
2022-08-31T07:40:16.931Z,47.40
2022-08-31T07:42:46.994Z,6.10
2022-08-31T07:45:23.137Z,1.00
2022-08-31T07:47:51.666Z,8.20
2022-08-31T07:50:20.857Z,20.80
2022-08-31T07:52:51.789Z,35.30
2022-08-31T07:55:22.129Z,57.40
2022-08-31T07:57:53.487Z,83.10
2022-08-31T08:00:25.140Z,89.20
2022-08-31T08:02:54.042Z,77.70
2022-08-31T08:05:27.627Z,99.90
2022-08-31T08:08:00.207Z,99.90
2022-08-31T08:10:30.059Z,99.90
2022-08-31T08:13:05.388Z,99.90
2022-08-31T08:15:36.172Z,99.90
2022-08-31T08:18:05.363Z,98.20
2022-08-31T08:20:37.456Z,84.10
2022-08-31T08:23:11.583Z,22.10
2022-08-31T08:25:43.150Z,1.00
2022-08-31T08:28:38.113Z,1.00
2022-08-31T08:31:06.567Z,1.00
2022-08-31T08:33:36.576Z,1.00
2022-08-31T08:36:08.283Z,1.00
2022-08-31T08:38:39.302Z,1.00
2022-08-31T08:41:13.719Z,1.00
2022-08-31T08:43:47.993Z,1.00
2022-08-31T08:47:38.524Z,1.00
2022-08-31T08:49:22.153Z,1.00
2022-08-31T08:51:56.126Z,1.00
2022-08-31T08:54:34.293Z,1.00
2022-08-31T08:57:08.662Z,3.30
2022-08-31T08:59:38.088Z,20.10
2022-08-31T09:02:11.109Z,33.60
2022-08-31T09:04:50.490Z,14.90
2022-08-31T09:07:37.928Z,5.20
2022-08-31T09:10:14.457Z,20.50
2022-08-31T09:12:51.659Z,14.30
2022-08-31T09:15:36.566Z,3.80
2022-08-31T09:18:14.704Z,6.50
2022-08-31T09:20:42.865Z,1.00
2022-08-31T09:23:14.208Z,1.00
2022-08-31T09:25:52.425Z,1.00
2022-08-31T09:28:35.907Z,1.00
2022-08-31T09:31:05.904Z,1.00
2022-08-31T09:33:36.358Z,1.00
2022-08-31T09:36:18.825Z,1.00
2022-08-31T09:38:47.910Z,1.00
2022-08-31T09:41:30.583Z,1.00
2022-08-31T09:44:26.116Z,1.00
2022-08-31T09:47:00.583Z,1.00
2022-08-31T09:49:30.348Z,1.00
2022-08-31T09:52:21.293Z,1.00
2022-08-31T09:55:15.039Z,1.00
2022-08-31T09:57:46.342Z,1.00
2022-08-31T10:00:16.881Z,1.00
2022-08-31T10:02:50.070Z,1.00
2022-08-31T10:05:32.900Z,1.00
2022-08-31T10:08:07.428Z,1.00
2022-08-31T10:10:38.750Z,1.00
2022-08-31T10:13:14.055Z,1.00
2022-08-31T10:15:48.648Z,1.00
2022-08-31T10:18:25.198Z,1.00
2022-08-31T10:20:59.572Z,1.00
2022-08-31T10:23:34.748Z,1.00
2022-08-31T10:26:07.806Z,1.00
2022-08-31T10:28:41.516Z,1.00
2022-08-31T10:31:21.137Z,1.00
2022-08-31T10:34:15.551Z,99.90
2022-08-31T10:36:44.526Z,99.90
2022-08-31T10:39:25.786Z,99.90
2022-08-31T10:41:53.833Z,99.90
2022-08-31T10:44:32.577Z,1.00
2022-08-31T10:47:05.690Z,1.00
2022-08-31T10:49:39.134Z,1.00
2022-08-31T10:52:18.182Z,1.00
2022-08-31T10:54:54.493Z,1.00
2022-08-31T10:57:32.210Z,1.00
2022-08-31T11:00:07.490Z,1.00
2022-08-31T11:02:55.381Z,99.90
2022-08-31T11:05:35.191Z,99.90
2022-08-31T11:08:29.714Z,99.90
2022-08-31T11:10:59.305Z,99.90
2022-08-31T11:14:01.650Z,99.90
2022-08-31T11:16:56.646Z,99.90
2022-08-31T11:19:58.309Z,99.90
2022-08-31T11:22:52.229Z,99.90
2022-08-31T11:25:58.975Z,99.90
2022-08-31T11:28:35.287Z,1.00
2022-08-31T11:31:07.604Z,1.00
2022-08-31T11:33:37.451Z,1.00
2022-08-31T11:36:08.861Z,1.00
2022-08-31T11:39:12.797Z,1.00
2022-08-31T11:41:46.675Z,1.00
2022-08-31T11:44:46.687Z,99.90
2022-08-31T11:47:35.719Z,99.90
2022-08-31T11:50:11.346Z,99.90
2022-08-31T11:52:45.129Z,99.90
2022-08-31T11:55:27.107Z,99.90
2022-08-31T11:58:32.680Z,99.90
2022-08-31T12:01:09.513Z,99.90
2022-08-31T12:03:50.857Z,99.90
2022-08-31T12:07:07.669Z,99.90
2022-08-31T12:09:52.095Z,99.90
2022-08-31T12:12:30.783Z,56.70
2022-08-31T12:15:08.405Z,1.00
2022-08-31T12:17:48.454Z,1.00
2022-08-31T12:20:25.269Z,99.90
2022-08-31T12:23:37.670Z,99.90
2022-08-31T12:26:31.474Z,38.80
2022-08-31T12:29:18.182Z,1.00
2022-08-31T12:32:08.734Z,1.00
2022-08-31T12:34:41.841Z,1.00
2022-08-31T12:37:22.299Z,1.00
2022-08-31T12:39:50.636Z,1.00
2022-08-31T12:42:19.679Z,99.90
2022-08-31T12:44:52.799Z,99.90
2022-08-31T12:47:29.751Z,99.90
2022-08-31T12:50:09.063Z,99.90
2022-08-31T12:52:52.581Z,99.90
2022-08-31T12:55:28.856Z,99.90
2022-08-31T12:58:13.275Z,1.00
2022-08-31T13:00:46.013Z,99.90
2022-08-31T13:03:22.408Z,99.90
2022-08-31T13:06:08.404Z,99.90
2022-08-31T13:08:40.219Z,99.90
2022-08-31T13:11:16.885Z,99.90
2022-08-31T13:13:51.185Z,99.90
2022-08-31T13:16:19.753Z,99.90
2022-08-31T13:18:52.070Z,99.90
2022-08-31T13:21:23.481Z,99.90
2022-08-31T13:23:51.595Z,99.90
2022-08-31T13:26:23.084Z,99.90
2022-08-31T13:28:53.825Z,99.90
2022-08-31T13:31:25.144Z,99.90
2022-08-31T13:33:56.858Z,99.90
2022-08-31T13:36:32.838Z,99.90
2022-08-31T13:39:03.677Z,99.90
2022-08-31T13:41:35.902Z,99.90
2022-08-31T13:44:08.941Z,99.90
2022-08-31T13:46:44.562Z,99.90
2022-08-31T13:49:35.253Z,99.90
2022-08-31T13:52:04.793Z,99.90
2022-08-31T13:54:34.630Z,99.90
2022-08-31T13:57:28.381Z,99.90
2022-08-31T14:00:25.436Z,99.90
2022-08-31T14:02:54.041Z,99.90
2022-08-31T14:05:32.866Z,1.00
2022-08-31T14:08:03.978Z,1.00
2022-08-31T14:10:37.786Z,1.00
2022-08-31T14:13:18.248Z,1.00
2022-08-31T14:15:52.376Z,1.00
2022-08-31T14:18:36.545Z,1.00
2022-08-31T14:21:23.076Z,25.10
2022-08-31T14:23:54.374Z,1.00
2022-08-31T14:26:26.343Z,97.60
2022-08-31T14:28:56.144Z,99.90
2022-08-31T14:31:27.617Z,99.90
2022-08-31T14:34:20.256Z,99.90
2022-08-31T14:36:53.790Z,99.90
2022-08-31T14:39:24.764Z,99.90
2022-08-31T14:41:54.651Z,99.90
2022-08-31T14:44:25.710Z,99.90
2022-08-31T14:46:54.054Z,99.90
2022-08-31T14:49:23.086Z,1.00
2022-08-31T14:51:59.917Z,1.00
2022-08-31T14:54:34.689Z,1.00
2022-08-31T14:57:04.923Z,99.90
2022-08-31T14:59:35.715Z,99.90
2022-08-31T15:02:03.840Z,99.90
2022-08-31T15:04:33.578Z,99.90
2022-08-31T15:07:09.739Z,99.90
2022-08-31T15:09:41.357Z,99.90
2022-08-31T15:12:11.811Z,76.10
2022-08-31T15:14:44.707Z,29.70
2022-08-31T15:17:19.844Z,43.90
2022-08-31T15:19:55.108Z,99.90
2022-08-31T15:22:26.204Z,98.40
2022-08-31T15:24:55.233Z,85.60
2022-08-31T15:27:25.450Z,1.00
2022-08-31T15:29:56.080Z,23.00
2022-08-31T15:32:25.244Z,43.10
2022-08-31T15:34:58.126Z,88.10
2022-08-31T15:37:30.833Z,99.90
2022-08-31T15:40:03.757Z,99.90
2022-08-31T15:42:39.465Z,99.90
2022-08-31T15:45:08.717Z,99.90
2022-08-31T15:47:58.262Z,99.90
2022-08-31T15:50:31.849Z,99.90
2022-08-31T15:53:08.951Z,99.90
2022-08-31T15:55:40.457Z,1.00
2022-08-31T15:58:12.562Z,1.00
2022-08-31T16:00:42.105Z,1.00
2022-08-31T16:03:10.971Z,83.80
2022-08-31T16:05:39.921Z,99.90
2022-08-31T16:08:11.102Z,99.90
2022-08-31T16:10:42.849Z,99.90
2022-08-31T16:13:10.979Z,99.90
2022-08-31T16:15:39.668Z,99.90
2022-08-31T16:18:08.867Z,99.90
2022-08-31T16:20:39.075Z,1.00
2022-08-31T16:23:07.525Z,1.00
2022-08-31T16:25:48.404Z,1.00
2022-08-31T16:28:17.302Z,1.00
2022-08-31T16:30:45.469Z,1.00
2022-08-31T16:33:13.542Z,20.20
2022-08-31T16:35:41.597Z,35.70
2022-08-31T16:38:09.617Z,73.70
2022-08-31T16:40:39.099Z,63.00
2022-08-31T16:43:07.171Z,34.60
2022-08-31T16:45:35.230Z,52.40
2022-08-31T16:48:21.089Z,34.10
2022-08-31T16:50:49.753Z,25.90
2022-08-31T16:53:18.438Z,1.00
2022-08-31T16:55:48.384Z,23.00
2022-08-31T16:58:29.801Z,25.40
2022-08-31T17:01:08.873Z,67.50
2022-08-31T17:03:36.941Z,77.00
2022-08-31T17:06:05.207Z,93.80
2022-08-31T17:08:37.162Z,99.90
2022-08-31T17:11:16.053Z,99.90
2022-08-31T17:13:47.265Z,99.90
2022-08-31T17:16:21.163Z,99.90
2022-08-31T17:18:51.566Z,99.90
2022-08-31T17:21:21.543Z,99.90
2022-08-31T17:23:54.526Z,99.90
2022-08-31T17:26:25.573Z,99.90
2022-08-31T17:29:01.793Z,99.90
2022-08-31T17:31:32.464Z,99.90
2022-08-31T17:34:01.079Z,99.90
2022-08-31T17:36:37.213Z,99.90
2022-08-31T17:39:06.480Z,99.90
2022-08-31T17:41:37.006Z,99.90
2022-08-31T17:44:05.412Z,99.90
2022-08-31T17:46:33.813Z,99.90
2022-08-31T17:49:02.215Z,99.90
2022-08-31T17:51:34.402Z,1.00
2022-08-31T17:54:05.484Z,1.00
2022-08-31T17:56:44.227Z,1.00
2022-08-31T17:59:18.066Z,1.00
2022-08-31T18:01:48.750Z,1.00
2022-08-31T18:04:17.811Z,1.00
2022-08-31T18:06:46.487Z,1.00
2022-08-31T18:09:16.031Z,1.00
2022-08-31T18:11:46.213Z,1.00
2022-08-31T18:14:15.225Z,1.00
2022-08-31T18:16:43.708Z,1.00
2022-08-31T18:19:12.222Z,7.10
2022-08-31T18:21:40.529Z,34.40
2022-08-31T18:24:09.195Z,43.70
2022-08-31T18:26:48.062Z,70.20
2022-08-31T18:29:19.589Z,92.50
2022-08-31T18:31:52.838Z,91.40
2022-08-31T18:34:23.000Z,99.90
2022-08-31T18:36:53.230Z,99.90
2022-08-31T18:39:41.072Z,99.90
2022-08-31T18:42:32.330Z,99.90
2022-08-31T18:45:19.816Z,99.90
2022-08-31T18:48:20.828Z,99.90
2022-08-31T18:50:46.337Z,99.90
2022-08-31T18:53:29.277Z,99.90
2022-08-31T18:56:00.235Z,99.90
2022-08-31T18:58:30.000Z,99.90
2022-08-31T19:00:59.001Z,99.90
2022-08-31T19:03:28.447Z,99.90
2022-08-31T19:05:57.499Z,99.90
2022-08-31T19:08:26.345Z,99.90
2022-08-31T19:10:58.123Z,99.90
2022-08-31T19:13:31.173Z,99.90
2022-08-31T19:16:08.117Z,99.90
2022-08-31T19:18:43.969Z,99.90
2022-08-31T19:21:18.025Z,99.90
2022-08-31T19:23:46.514Z,99.90
2022-08-31T19:26:20.520Z,99.90
2022-08-31T19:28:50.220Z,99.90
2022-08-31T19:31:21.794Z,99.90
2022-08-31T19:33:56.399Z,99.90
2022-08-31T19:36:25.051Z,99.90
2022-08-31T19:38:54.163Z,99.90
2022-08-31T19:41:25.204Z,99.90
2022-08-31T19:44:03.038Z,99.90
2022-08-31T19:46:35.014Z,99.90
2022-08-31T19:49:03.508Z,99.90
2022-08-31T19:51:32.234Z,99.90
2022-08-31T19:54:03.275Z,99.90
2022-08-31T19:56:31.526Z,99.90
2022-08-31T19:59:00.510Z,99.90
2022-08-31T20:01:33.633Z,99.90
2022-08-31T20:04:14.436Z,99.90
2022-08-31T20:06:45.249Z,99.90
2022-08-31T20:09:15.580Z,99.90
2022-08-31T20:11:47.436Z,99.90
2022-08-31T20:14:16.104Z,99.90
2022-08-31T20:16:45.145Z,99.90
2022-08-31T20:19:18.751Z,99.90
2022-08-31T20:21:52.831Z,99.90
2022-08-31T20:24:22.326Z,99.90
2022-08-31T20:26:52.309Z,99.90
2022-08-31T20:29:21.654Z,99.90
2022-08-31T20:31:51.950Z,99.90
2022-08-31T20:34:23.530Z,1.00
2022-08-31T20:36:58.548Z,1.00
2022-08-31T20:39:35.240Z,1.00
2022-08-31T20:42:03.590Z,1.00
2022-08-31T20:44:33.635Z,1.00
2022-08-31T20:47:21.289Z,1.00
2022-08-31T20:49:54.792Z,1.00
2022-08-31T20:52:27.132Z,1.00
2022-08-31T20:55:01.325Z,1.00
2022-08-31T20:57:31.715Z,1.00
2022-08-31T21:00:04.667Z,1.00
2022-08-31T21:02:34.251Z,1.00
2022-08-31T21:05:36.640Z,1.00
2022-08-31T21:07:57.494Z,1.00
2022-08-31T21:10:36.780Z,1.00
2022-08-31T21:13:10.970Z,1.00
2022-08-31T21:15:50.990Z,1.00
2022-08-31T21:18:19.215Z,1.00
2022-08-31T21:20:51.489Z,1.00
2022-08-31T21:23:19.774Z,1.00
2022-08-31T21:25:48.108Z,1.00
2022-08-31T21:28:18.368Z,1.00
2022-08-31T21:30:49.115Z,1.00
2022-08-31T21:33:17.731Z,1.00
2022-08-31T21:35:46.242Z,1.00
2022-08-31T21:38:15.667Z,1.00
2022-08-31T21:40:50.077Z,1.00
2022-08-31T21:43:18.523Z,1.00
2022-08-31T21:45:46.756Z,1.00
2022-08-31T21:48:14.752Z,1.00
2022-08-31T21:50:42.808Z,1.00
2022-08-31T21:53:11.776Z,1.00
2022-08-31T21:55:41.241Z,1.00
2022-08-31T21:58:09.517Z,1.00
2022-08-31T22:00:41.766Z,1.00
2022-08-31T22:03:11.184Z,1.00
2022-08-31T22:05:41.546Z,1.00
2022-08-31T22:08:09.834Z,1.00
2022-08-31T22:10:42.461Z,1.00
2022-08-31T22:13:12.607Z,1.00
2022-08-31T22:15:41.124Z,1.00
2022-08-31T22:20:58.931Z,1.00
2022-08-31T22:24:10.667Z,1.00
2022-08-31T22:26:45.674Z,1.00
2022-08-31T22:29:17.263Z,1.00
2022-08-31T22:31:45.328Z,1.00
2022-08-31T22:34:13.830Z,1.00
2022-08-31T22:36:41.968Z,1.00
2022-08-31T22:39:14.267Z,1.00
2022-08-31T22:41:44.698Z,1.00
2022-08-31T22:44:14.309Z,1.00
2022-08-31T22:46:42.498Z,1.00
2022-08-31T22:49:10.998Z,1.00
2022-08-31T22:51:41.638Z,1.00
2022-08-31T22:54:11.195Z,1.00
2022-08-31T22:56:40.353Z,1.00
2022-08-31T22:59:12.891Z,1.00
2022-08-31T23:01:43.473Z,1.00
2022-08-31T23:04:14.523Z,1.00
2022-08-31T23:06:42.737Z,1.00
2022-08-31T23:09:11.940Z,1.00
2022-08-31T23:11:41.029Z,1.00
2022-08-31T23:14:10.726Z,1.00
2022-08-31T23:16:40.963Z,1.00
2022-08-31T23:19:12.227Z,1.00
2022-08-31T23:21:44.949Z,1.00
2022-08-31T23:24:13.856Z,1.00
2022-08-31T23:26:41.943Z,1.00
2022-08-31T23:29:12.226Z,1.00
2022-08-31T23:31:41.388Z,1.00
2022-08-31T23:34:13.057Z,1.00
2022-08-31T23:36:44.021Z,1.00
2022-08-31T23:39:12.031Z,1.00
2022-08-31T23:41:40.107Z,1.00
2022-08-31T23:44:09.943Z,1.00
2022-08-31T23:46:41.087Z,1.00
2022-08-31T23:49:12.258Z,1.00
2022-08-31T23:51:40.947Z,1.00
2022-08-31T23:54:10.574Z,1.00
2022-08-31T23:56:41.855Z,1.00
2022-08-31T23:59:17.228Z,1.00
